Terminal Aerodrome Forecast
Issued by NWS

Home | Current Version | Previous Version | Text Only | Print | Product List | Glossary Off
Versions: 1 2 3 4 5 6 7 8 9 10 11 12 13 14 15

000
FTUS43 KICT 231500 AAA
TAFCNU
TAF AMD
KCNU 231521Z 2315/2412 04007KT P6SM SCT025
     FM231600 05007KT P6SM VCTS SCT015 BKN030CB
      TEMPO 2316/2318 VRB20G30KT 3SM TSRA BKN015CB
     FM231900 03010KT P6SM SCT030 BKN250
     FM240000 VRB05KT P6SM SKC
     FM240900 09003KT 5SM BR SCT250=

USA.gov is the U.S. government's official web portal to all federal, state and local government web resources and services.